PWSweather.com
Personal Weather Stations
Station Observations
KCOBLACK1
Chalet Park, Black Hawk, CO 80422

Chalet ParkBlack Hawk, CO 80422

Lat: 39.8294, Lon: -105.48

Elevation: 9370

Station Type: Vantage Pro2

http://www.oscaranddeb.com/weather

Latest ConditionsUpdated 4:40:06 AM MDT Thursday, Jul 24, 2014
Currently Today's Max Today's Min Today's Average
Temperature 62.7°F17.1°C 64.9°F18.3°C 61.7°F16.5°C 62.9°F17.2°C
Dew Point 39.8°F4.3°C 40.9°F4.9°C 36.4°F2.4°C 39.1°F3.9°C
Winds 6.0 mph W9.7 kmh W 11.0 mph WSW17.7 kmh WSW - 6.0 mph 9.7 kmh
Wind Gusts 11.0 mph17.7 kmh 16.0 mph25.7 kmh - -
Humidity 43% 46% 36% 42%
Pressure 29.77 in1008.1 mb 29.82 in1009.8 mb 29.76 in1007.8 mb -
Hour Temp Dew Point Humidity Winds Wind Gusts Pressure Precip Precip Rate Daily Precip Total
04:40 AM 62.7°F17.1°C 39.8°F4.3°C 43% 6.0 mph W9.7 kmh W 11.0 mph17.7 kmh 29.77 in1008.1 mb 0.00 in0.0 mm 0.00 in/hr0.0 mm/hr 0.00 in0.0 mm
04:35 AM 63.0°F17.2°C 40.1°F4.5°C 43% 9.0 mph WSW14.5 kmh WSW 15.0 mph24.1 kmh 29.76 in1007.8 mb 0.00 in0.0 mm 0.00 in/hr0.0 mm/hr 0.00 in0.0 mm
04:30 AM 63.1°F17.3°C 39.6°F4.2°C 42% 11.0 mph WSW17.7 kmh WSW 13.0 mph20.9 kmh 29.76 in1007.8 mb 0.00 in0.0 mm 0.00 in/hr0.0 mm/hr 0.00 in0.0 mm
04:25 AM 63.2°F17.3°C 39.7°F4.3°C 42% 8.0 mph WSW12.9 kmh WSW 14.0 mph22.5 kmh 29.76 in1007.8 mb 0.00 in0.0 mm 0.00 in/hr0.0 mm/hr 0.00 in0.0 mm
04:20 AM 63.0°F17.2°C 40.1°F4.5°C 43% 8.0 mph WSW12.9 kmh WSW 13.0 mph20.9 kmh 29.76 in1007.8 mb 0.00 in0.0 mm 0.00 in/hr0.0 mm/hr 0.00 in0.0 mm
04:15 AM 62.7°F17.1°C 40.4°F4.7°C 44% 3.0 mph W4.8 kmh W 13.0 mph20.9 kmh 29.76 in1007.8 mb 0.00 in0.0 mm 0.00 in/hr0.0 mm/hr 0.00 in0.0 mm
04:10 AM 62.3°F16.8°C 40.6°F4.8°C 45% 7.0 mph WSW11.3 kmh WSW 11.0 mph17.7 kmh 29.76 in1007.8 mb 0.00 in0.0 mm 0.00 in/hr0.0 mm/hr 0.00 in0.0 mm
04:05 AM 62.2°F16.8°C 40.5°F4.7°C 45% 3.0 mph W4.8 kmh W 8.0 mph12.9 kmh 29.76 in1007.8 mb 0.00 in0.0 mm 0.00 in/hr0.0 mm/hr 0.00 in0.0 mm
04:00 AM 62.1°F16.7°C 40.5°F4.7°C 45% 4.0 mph WSW6.4 kmh WSW 9.0 mph14.5 kmh 29.76 in1007.8 mb 0.00 in0.0 mm 0.00 in/hr0.0 mm/hr 0.00 in0.0 mm
03:55 AM 61.9°F16.6°C 40.8°F4.9°C 46% 3.0 mph WSW4.8 kmh WSW 11.0 mph17.7 kmh 29.76 in1007.8 mb 0.00 in0.0 mm 0.00 in/hr0.0 mm/hr 0.00 in0.0 mm
03:50 AM 62.0°F16.7°C 40.9°F4.9°C 46% 4.0 mph W6.4 kmh W 12.0 mph19.3 kmh 29.76 in1007.8 mb 0.00 in0.0 mm 0.00 in/hr0.0 mm/hr 0.00 in0.0 mm
03:45 AM 61.9°F16.6°C 40.8°F4.9°C 46% 10.0 mph SW16.1 kmh SW 12.0 mph19.3 kmh 29.76 in1007.8 mb 0.00 in0.0 mm 0.00 in/hr0.0 mm/hr 0.00 in0.0 mm
03:40 AM 61.9°F16.6°C 40.8°F4.9°C 46% 7.0 mph WSW11.3 kmh WSW 12.0 mph19.3 kmh 29.76 in1007.8 mb 0.00 in0.0 mm 0.00 in/hr0.0 mm/hr 0.00 in0.0 mm
03:35 AM 61.8°F16.6°C 40.7°F4.8°C 46% 5.0 mph WSW8.0 kmh WSW 11.0 mph17.7 kmh 29.77 in1008.1 mb 0.00 in0.0 mm 0.00 in/hr0.0 mm/hr 0.00 in0.0 mm
03:30 AM 61.9°F16.6°C 40.8°F4.9°C 46% 7.0 mph WSW11.3 kmh WSW 12.0 mph19.3 kmh 29.77 in1008.1 mb 0.00 in0.0 mm 0.00 in/hr0.0 mm/hr 0.00 in0.0 mm
03:25 AM 62.0°F16.7°C 40.9°F4.9°C 46% 4.0 mph WNW6.4 kmh WNW 12.0 mph19.3 kmh 29.77 in1008.1 mb 0.00 in0.0 mm 0.00 in/hr0.0 mm/hr 0.00 in0.0 mm
03:20 AM 62.0°F16.7°C 40.9°F4.9°C 46% 5.0 mph WSW8.0 kmh WSW 11.0 mph17.7 kmh 29.77 in1008.1 mb 0.00 in0.0 mm 0.00 in/hr0.0 mm/hr 0.00 in0.0 mm
03:15 AM 62.0°F16.7°C 40.9°F4.9°C 46% 3.0 mph SW4.8 kmh SW 12.0 mph19.3 kmh 29.77 in1008.1 mb 0.00 in0.0 mm 0.00 in/hr0.0 mm/hr 0.00 in0.0 mm
03:10 AM 61.8°F16.6°C 40.7°F4.8°C 46% 4.0 mph WSW6.4 kmh WSW 12.0 mph19.3 kmh 29.77 in1008.1 mb 0.00 in0.0 mm 0.00 in/hr0.0 mm/hr 0.00 in0.0 mm
03:05 AM 61.8°F16.6°C 40.7°F4.8°C 46% 8.0 mph WSW12.9 kmh WSW 11.0 mph17.7 kmh 29.77 in1008.1 mb 0.00 in0.0 mm 0.00 in/hr0.0 mm/hr 0.00 in0.0 mm
03:00 AM 61.8°F16.6°C 40.7°F4.8°C 46% 8.0 mph WSW12.9 kmh WSW 14.0 mph22.5 kmh 29.78 in1008.5 mb 0.00 in0.0 mm 0.00 in/hr0.0 mm/hr 0.00 in0.0 mm
02:55 AM 61.7°F16.5°C 40.7°F4.8°C 46% 6.0 mph WSW9.7 kmh WSW 12.0 mph19.3 kmh 29.78 in1008.5 mb 0.00 in0.0 mm 0.00 in/hr0.0 mm/hr 0.00 in0.0 mm
02:50 AM 61.9°F16.6°C 40.3°F4.6°C 45% 3.0 mph WSW4.8 kmh WSW 9.0 mph14.5 kmh 29.79 in1008.8 mb 0.00 in0.0 mm 0.00 in/hr0.0 mm/hr 0.00 in0.0 mm
02:45 AM 62.2°F16.8°C 40.0°F4.4°C 44% 10.0 mph SW16.1 kmh SW 12.0 mph19.3 kmh 29.78 in1008.5 mb 0.00 in0.0 mm 0.00 in/hr0.0 mm/hr 0.00 in0.0 mm
02:40 AM 62.3°F16.8°C 40.1°F4.5°C 44% 6.0 mph W9.7 kmh W 12.0 mph19.3 kmh 29.79 in1008.8 mb 0.00 in0.0 mm 0.00 in/hr0.0 mm/hr 0.00 in0.0 mm
02:35 AM 62.3°F16.8°C 39.5°F4.2°C 43% 2.0 mph W3.2 kmh W 10.0 mph16.1 kmh 29.79 in1008.8 mb 0.00 in0.0 mm 0.00 in/hr0.0 mm/hr 0.00 in0.0 mm
02:30 AM 62.5°F16.9°C 39.6°F4.2°C 43% 7.0 mph WSW11.3 kmh WSW 13.0 mph20.9 kmh 29.79 in1008.8 mb 0.00 in0.0 mm 0.00 in/hr0.0 mm/hr 0.00 in0.0 mm
02:25 AM 62.4°F16.9°C 39.6°F4.2°C 43% 8.0 mph WSW12.9 kmh WSW 13.0 mph20.9 kmh 29.79 in1008.8 mb 0.00 in0.0 mm 0.00 in/hr0.0 mm/hr 0.00 in0.0 mm
02:20 AM 62.6°F17.0°C 39.7°F4.3°C 43% 4.0 mph W6.4 kmh W 14.0 mph22.5 kmh 29.79 in1008.8 mb 0.00 in0.0 mm 0.00 in/hr0.0 mm/hr 0.00 in0.0 mm
02:15 AM 62.6°F17.0°C 39.1°F3.9°C 42% 3.0 mph SSW4.8 kmh SSW 13.0 mph20.9 kmh 29.79 in1008.8 mb 0.00 in0.0 mm 0.00 in/hr0.0 mm/hr 0.00 in0.0 mm
02:10 AM 62.6°F17.0°C 39.1°F3.9°C 42% 3.0 mph WSW4.8 kmh WSW 8.0 mph12.9 kmh 29.80 in1009.1 mb 0.00 in0.0 mm 0.00 in/hr0.0 mm/hr 0.00 in0.0 mm
02:05 AM 62.7°F17.1°C 39.2°F4.0°C 42% 4.0 mph SW6.4 kmh SW 12.0 mph19.3 kmh 29.80 in1009.1 mb 0.00 in0.0 mm 0.00 in/hr0.0 mm/hr 0.00 in0.0 mm
02:00 AM 62.5°F16.9°C 39.0°F3.9°C 42% 7.0 mph WSW11.3 kmh WSW 11.0 mph17.7 kmh 29.80 in1009.1 mb 0.00 in0.0 mm 0.00 in/hr0.0 mm/hr 0.00 in0.0 mm
01:55 AM 62.7°F17.1°C 38.6°F3.7°C 41% 8.0 mph WSW12.9 kmh WSW 11.0 mph17.7 kmh 29.80 in1009.1 mb 0.00 in0.0 mm 0.00 in/hr0.0 mm/hr 0.00 in0.0 mm
01:50 AM 62.9°F17.2°C 38.8°F3.8°C 41% 1.0 mph WSW1.6 kmh WSW 12.0 mph19.3 kmh 29.80 in1009.1 mb 0.00 in0.0 mm 0.00 in/hr0.0 mm/hr 0.00 in0.0 mm
01:45 AM 62.9°F17.2°C 38.8°F3.8°C 41% 3.0 mph WNW4.8 kmh WNW 13.0 mph20.9 kmh 29.80 in1009.1 mb 0.00 in0.0 mm 0.00 in/hr0.0 mm/hr 0.00 in0.0 mm
01:40 AM 62.9°F17.2°C 38.2°F3.4°C 40% 4.0 mph W6.4 kmh W 10.0 mph16.1 kmh 29.80 in1009.1 mb 0.00 in0.0 mm 0.00 in/hr0.0 mm/hr 0.00 in0.0 mm
01:35 AM 63.1°F17.3°C 38.3°F3.5°C 40% 7.0 mph W11.3 kmh W 11.0 mph17.7 kmh 29.80 in1009.1 mb 0.00 in0.0 mm 0.00 in/hr0.0 mm/hr 0.00 in0.0 mm
01:30 AM 63.3°F17.4°C 38.5°F3.6°C 40% 4.0 mph W6.4 kmh W 12.0 mph19.3 kmh 29.80 in1009.1 mb 0.00 in0.0 mm 0.00 in/hr0.0 mm/hr 0.00 in0.0 mm
01:25 AM 63.6°F17.6°C 38.8°F3.8°C 40% 8.0 mph WSW12.9 kmh WSW 16.0 mph25.7 kmh 29.80 in1009.1 mb 0.00 in0.0 mm 0.00 in/hr0.0 mm/hr 0.00 in0.0 mm
01:20 AM 63.5°F17.5°C 38.0°F3.3°C 39% 4.0 mph WSW6.4 kmh WSW 15.0 mph24.1 kmh 29.81 in1009.5 mb 0.00 in0.0 mm 0.00 in/hr0.0 mm/hr 0.00 in0.0 mm
01:15 AM 63.6°F17.6°C 38.1°F3.4°C 39% 8.0 mph SW12.9 kmh SW 13.0 mph20.9 kmh 29.81 in1009.5 mb 0.00 in0.0 mm 0.00 in/hr0.0 mm/hr 0.00 in0.0 mm
01:10 AM 63.7°F17.6°C 37.6°F3.1°C 38% 8.0 mph SW12.9 kmh SW 11.0 mph17.7 kmh 29.81 in1009.5 mb 0.00 in0.0 mm 0.00 in/hr0.0 mm/hr 0.00 in0.0 mm
01:05 AM 63.9°F17.7°C 37.1°F2.8°C 37% 10.0 mph SW16.1 kmh SW 12.0 mph19.3 kmh 29.82 in1009.8 mb 0.00 in0.0 mm 0.00 in/hr0.0 mm/hr 0.00 in0.0 mm
01:00 AM 63.8°F17.7°C 37.0°F2.8°C 37% 8.0 mph WSW12.9 kmh WSW 13.0 mph20.9 kmh 29.82 in1009.8 mb 0.00 in0.0 mm 0.00 in/hr0.0 mm/hr 0.00 in0.0 mm
12:55 AM 63.8°F17.7°C 37.0°F2.8°C 37% 9.0 mph W14.5 kmh W 12.0 mph19.3 kmh 29.82 in1009.8 mb 0.00 in0.0 mm 0.00 in/hr0.0 mm/hr 0.00 in0.0 mm
12:50 AM 63.8°F17.7°C 37.0°F2.8°C 37% 7.0 mph W11.3 kmh W 11.0 mph17.7 kmh 29.82 in1009.8 mb 0.00 in0.0 mm 0.00 in/hr0.0 mm/hr 0.00 in0.0 mm
12:45 AM 63.9°F17.7°C 37.1°F2.8°C 37% 8.0 mph WSW12.9 kmh WSW 11.0 mph17.7 kmh 29.82 in1009.8 mb 0.00 in0.0 mm 0.00 in/hr0.0 mm/hr 0.00 in0.0 mm
12:40 AM 64.0°F17.8°C 37.2°F2.9°C 37% 7.0 mph W11.3 kmh W 14.0 mph22.5 kmh 29.82 in1009.8 mb 0.00 in0.0 mm 0.00 in/hr0.0 mm/hr 0.00 in0.0 mm
12:35 AM 64.0°F17.8°C 36.5°F2.5°C 36% 10.0 mph SW16.1 kmh SW 15.0 mph24.1 kmh 29.82 in1009.8 mb 0.00 in0.0 mm 0.00 in/hr0.0 mm/hr 0.00 in0.0 mm
12:30 AM 63.9°F17.7°C 36.4°F2.4°C 36% 7.0 mph SW11.3 kmh SW 13.0 mph20.9 kmh 29.82 in1009.8 mb 0.00 in0.0 mm 0.00 in/hr0.0 mm/hr 0.00 in0.0 mm
12:25 AM 64.2°F17.9°C 37.3°F2.9°C 37% 8.0 mph WSW12.9 kmh WSW 9.0 mph14.5 kmh 29.82 in1009.8 mb 0.00 in0.0 mm 0.00 in/hr0.0 mm/hr 0.00 in0.0 mm
12:20 AM 64.8°F18.2°C 37.2°F2.9°C 36% 3.0 mph WSW4.8 kmh WSW 9.0 mph14.5 kmh 29.82 in1009.8 mb 0.00 in0.0 mm 0.00 in/hr0.0 mm/hr 0.00 in0.0 mm
12:15 AM 64.7°F18.2°C 37.1°F2.8°C 36% 7.0 mph WSW11.3 kmh WSW 10.0 mph16.1 kmh 29.82 in1009.8 mb 0.00 in0.0 mm 0.00 in/hr0.0 mm/hr 0.00 in0.0 mm
12:10 AM 64.8°F18.2°C 37.2°F2.9°C 36% 3.0 mph SW4.8 kmh SW 11.0 mph17.7 kmh 29.82 in1009.8 mb 0.00 in0.0 mm 0.00 in/hr0.0 mm/hr 0.00 in0.0 mm
12:05 AM 64.7°F18.2°C 37.1°F2.8°C 36% 8.0 mph SW12.9 kmh SW 12.0 mph19.3 kmh 29.82 in1009.8 mb 0.00 in0.0 mm 0.00 in/hr0.0 mm/hr 0.00 in0.0 mm
12:00 AM 64.9°F18.3°C 37.3°F2.9°C 36% 2.0 mph WSW3.2 kmh WSW 11.0 mph17.7 kmh 29.82 in1009.8 mb 0.00 in0.0 mm 0.00 in/hr0.0 mm/hr 0.14 in3.6 mm